Time;durP1;ratioP1;P1;durP2;ratioP2;P2;SDS_P1;SDS_P2;PMS_P1;PMS_P2;Temp;Humidity;BMP_temperature;BMP_pressure;BME280_temperature;BME280_humidity;BME280_pressure;Samples;Min_cycle;Max_cycle;Signal;HPM_P1;HPM_P2
2022/01/18 00:01:38;;;;;;;6.03;1.47;;;;;;;-2.43;65.51;96098.44;1834045;78;21092;-66
2022/01/18 00:04:05;;;;;;;2.33;0.83;;;;;;;-2.38;65.08;96108.55;1835250;78;21496;-66
2022/01/18 00:06:32;;;;;;;2.23;1.10;;;;;;;-2.34;64.65;96119.87;1835174;78;21027;-67
2022/01/18 00:08:59;;;;;;;3.80;1.37;;;;;;;-2.31;65.55;96132.52;1830327;78;21003;-66
2022/01/18 00:11:28;;;;;;;3.60;1.13;;;;;;;-2.34;65.12;96125.95;1835255;78;20979;-67
2022/01/18 00:14:01;;;;;;;1.80;1.10;;;;;;;-2.37;65.22;96116.75;1835161;78;20976;-66
2022/01/18 00:16:38;;;;;;;0.60;0.40;;;;;;;-2.35;65.05;96120.70;1834684;78;21019;-66
2022/01/18 00:19:06;;;;;;;2.63;1.07;;;;;;;-2.36;64.97;96106.91;1832901;78;21027;-67
2022/01/18 00:23:57;;;;;;;2.87;0.90;;;;;;;-2.38;64.17;96130.52;1831357;78;21131;-66
2022/01/18 00:26:31;;;;;;;4.40;1.20;;;;;;;-2.37;64.68;96136.14;1831826;78;20980;-67
2022/01/18 00:29:05;;;;;;;3.77;1.20;;;;;;;-2.35;64.32;96129.33;1831540;78;21086;-67
2022/01/18 00:31:41;;;;;;;3.07;1.30;;;;;;;-2.35;64.20;96142.25;1831205;78;21030;-66
2022/01/18 00:34:16;;;;;;;2.83;1.13;;;;;;;-2.42;64.24;96160.91;1829569;78;21024;-66
2022/01/18 00:36:40;;;;;;;3.97;1.20;;;;;;;-2.45;64.67;96160.38;1830234;78;20984;-67
2022/01/18 00:39:09;;;;;;;4.63;1.30;;;;;;;-2.43;64.11;96161.75;1831325;78;21083;-67
2022/01/18 00:41:37;;;;;;;3.10;1.10;;;;;;;-2.46;64.23;96156.47;1831787;78;21446;-67
2022/01/18 00:44:06;;;;;;;2.37;1.10;;;;;;;-2.44;64.25;96154.41;1831267;78;21020;-66
2022/01/18 00:46:33;;;;;;;3.57;1.43;;;;;;;-2.50;63.55;96155.44;1831675;78;21460;-66
2022/01/18 00:49:02;;;;;;;3.13;1.30;;;;;;;-2.45;62.98;96162.09;1831792;78;21020;-66
2022/01/18 00:51:39;;;;;;;3.43;1.00;;;;;;;-2.48;63.93;96178.77;1831758;78;21023;-66
2022/01/18 00:54:07;;;;;;;2.47;1.00;;;;;;;-2.46;62.59;96181.02;1831504;78;21076;-66
2022/01/18 00:56:38;;;;;;;6.17;1.60;;;;;;;-2.49;63.43;96184.77;1831659;78;21000;-67
2022/01/18 00:59:02;;;;;;;3.20;1.03;;;;;;;-2.53;63.71;96175.99;1831173;78;21091;-66
2022/01/18 01:01:31;;;;;;;2.83;1.03;;;;;;;-2.51;63.32;96216.12;1831523;78;21024;-67
2022/01/18 01:04:02;;;;;;;2.90;1.00;;;;;;;-2.52;63.15;96201.41;1831695;78;20965;-67
2022/01/18 01:06:27;;;;;;;2.77;0.90;;;;;;;-2.47;63.79;96208.95;1831296;78;21477;-67
2022/01/18 01:08:54;;;;;;;2.07;0.80;;;;;;;-2.49;62.80;96195.11;1831472;78;21046;-66
2022/01/18 01:11:21;;;;;;;2.10;0.93;;;;;;;-2.52;63.03;96179.07;1831670;78;21051;-66
2022/01/18 01:13:51;;;;;;;2.63;1.10;;;;;;;-2.51;63.50;96188.98;1831422;78;21468;-67
2022/01/18 01:17:00;;;;;;;3.00;1.50;;;;;;;-2.51;63.73;96201.91;1831631;78;20987;-66
2022/01/18 01:33:18;;;;;;;3.00;1.43;;;;;;;-2.62;63.88;96200.18;1831938;78;21059;-66
2022/01/18 01:43:30;;;;;;;2.90;1.47;;;;;;;-2.61;63.99;96220.89;1717349;83;21540;-66
2022/01/18 01:45:55;;;;;;;6.10;1.63;;;;;;;-2.62;63.89;96217.84;1773183;78;21491;-66
2022/01/18 01:48:24;;;;;;;1.10;0.77;;;;;;;-2.63;64.11;96235.44;1831565;78;21059;-66
2022/01/18 01:50:54;;;;;;;3.27;1.30;;;;;;;-2.66;64.17;96224.98;1831542;78;21000;-67
2022/01/18 01:53:23;;;;;;;3.03;1.50;;;;;;;-2.62;64.03;96231.18;1831667;78;21000;-66
2022/01/18 01:55:52;;;;;;;3.47;1.27;;;;;;;-2.66;64.41;96227.98;1831287;78;21047;-66
2022/01/18 01:58:23;;;;;;;2.57;1.17;;;;;;;-2.67;64.10;96242.61;1831512;78;20988;-66
2022/01/18 02:00:58;;;;;;;3.73;0.77;;;;;;;-2.69;64.19;96230.44;1831164;78;21076;-66
2022/01/18 02:03:26;;;;;;;1.97;1.23;;;;;;;-2.69;64.47;96226.56;1831258;78;21078;-67
2022/01/18 02:05:52;;;;;;;3.90;1.30;;;;;;;-2.70;64.20;96246.73;1831278;78;21043;-66
2022/01/18 02:08:20;;;;;;;3.50;1.00;;;;;;;-2.67;64.56;96245.57;1831545;78;20960;-67
2022/01/18 02:10:46;;;;;;;3.77;1.43;;;;;;;-2.69;64.52;96246.81;1831615;78;20988;-67
2022/01/18 02:13:15;;;;;;;2.07;0.93;;;;;;;-2.70;64.24;96245.45;1831672;78;21066;-67
2022/01/18 02:24:00;;;;;;;1.70;0.90;;;;;;;-2.70;64.13;96243.74;1835097;78;21042;-66
2022/01/18 02:26:26;;;;;;;6.00;1.53;;;;;;;-2.78;64.10;96258.03;1834854;78;21533;-67
2022/01/18 02:28:52;;;;;;;4.83;1.03;;;;;;;-2.75;63.98;96258.16;1835387;78;21030;-67
2022/01/18 02:31:20;;;;;;;1.70;0.90;;;;;;;-2.83;64.30;96267.28;1834860;78;21564;-67
2022/01/18 02:33:46;;;;;;;2.27;0.80;;;;;;;-2.78;64.67;96259.33;1835199;78;20976;-66
2022/01/18 02:36:13;;;;;;;4.60;1.60;;;;;;;-2.85;64.27;96248.25;1834764;78;21011;-66
2022/01/18 02:38:39;;;;;;;2.97;1.13;;;;;;;-2.85;63.64;96263.75;1835397;78;21051;-67
2022/01/18 02:41:07;;;;;;;2.67;0.67;;;;;;;-2.83;64.38;96266.87;1835162;78;20972;-66
2022/01/18 02:43:55;;;;;;;5.37;1.10;;;;;;;-2.81;64.26;96269.95;1835182;78;21481;-66
2022/01/18 02:46:18;;;;;;;3.12;0.90;;;;;;;-2.82;64.22;96266.48;1834193;78;21003;-66
2022/01/18 02:48:44;;;;;;;3.67;1.17;;;;;;;-2.85;64.25;96280.53;1835055;78;21031;-66
2022/01/18 02:51:11;;;;;;;4.60;1.33;;;;;;;-2.86;63.68;96277.08;1835047;78;21003;-67
2022/01/18 02:54:00;;;;;;;4.00;1.20;;;;;;;-2.80;63.57;96275.57;1835353;78;20948;-66
2022/01/18 02:56:37;;;;;;;4.23;1.07;;;;;;;-2.82;63.29;96274.23;1835635;78;20976;-67
2022/01/18 02:59:13;;;;;;;2.10;0.90;;;;;;;-2.80;63.63;96263.95;1834128;78;20967;-67
2022/01/18 03:04:19;;;;;;;1.17;0.70;;;;;;;-2.85;62.96;96274.08;1835396;78;20979;-67
2022/01/18 03:06:45;;;;;;;6.27;1.50;;;;;;;-2.85;62.76;96284.41;1834913;78;21084;-67
2022/01/18 03:09:12;;;;;;;7.60;1.50;;;;;;;-2.89;62.40;96285.11;1835232;78;21042;-67
2022/01/18 03:11:38;;;;;;;4.73;1.20;;;;;;;-2.88;62.52;96286.86;1830438;78;21003;-67
2022/01/18 03:14:05;;;;;;;1.77;0.60;;;;;;;-2.93;62.04;96291.81;1835274;78;20932;-67
2022/01/18 03:16:32;;;;;;;4.53;1.37;;;;;;;-2.96;62.11;96285.23;1835073;78;20980;-67
2022/01/18 03:18:58;;;;;;;8.77;2.07;;;;;;;-2.99;61.89;96296.73;1835179;78;21022;-67
2022/01/18 03:21:25;;;;;;;4.63;1.37;;;;;;;-2.94;61.10;96312.42;1840095;78;21000;-67
2022/01/18 03:23:59;;;;;;;2.40;1.00;;;;;;;-2.97;61.75;96319.63;1840907;78;21002;-67
2022/01/18 03:26:30;;;;;;;5.13;1.17;;;;;;;-2.99;61.60;96311.34;1839460;78;21047;-67
2022/01/18 03:28:49;;;;;;;1.57;0.50;;;;;;;-3.02;61.42;96315.95;1838657;78;21003;-67
2022/01/18 03:31:15;;;;;;;3.20;1.37;;;;;;;-3.03;61.88;96324.50;1840460;78;21062;-66
2022/01/18 03:33:42;;;;;;;2.87;1.13;;;;;;;-3.02;61.94;96327.58;1840768;78;21000;-67
2022/01/18 03:36:08;;;;;;;3.13;1.10;;;;;;;-3.01;61.85;96337.48;1840646;78;20960;-67
2022/01/18 03:38:34;;;;;;;2.90;1.07;;;;;;;-3.03;62.28;96329.66;1840482;78;21580;-67
2022/01/18 03:41:04;;;;;;;3.67;1.20;;;;;;;-3.02;62.41;96333.13;1840449;78;21007;-67
2022/01/18 03:43:34;;;;;;;2.40;1.20;;;;;;;-3.01;62.73;96338.78;1840587;78;21014;-67
2022/01/18 03:46:03;;;;;;;5.00;2.00;;;;;;;-2.99;61.97;96334.58;1809563;78;21007;-67
2022/01/18 03:48:38;;;;;;;3.83;1.17;;;;;;;-3.00;62.55;96342.70;1841068;78;21010;-67
2022/01/18 03:51:08;;;;;;;4.83;1.47;;;;;;;-3.03;62.79;96342.57;1840316;78;21035;-67
2022/01/18 03:53:34;;;;;;;1.43;0.83;;;;;;;-3.02;62.71;96351.19;1840850;78;21015;-67
2022/01/18 03:56:02;;;;;;;3.93;1.80;;;;;;;-3.03;62.41;96363.64;1840369;78;21090;-67
2022/01/18 03:58:29;;;;;;;3.30;1.20;;;;;;;-3.01;62.42;96371.05;1840768;78;21015;-66
2022/01/18 04:00:56;;;;;;;5.33;1.23;;;;;;;-3.03;62.91;96359.77;1840325;78;21085;-67
2022/01/18 04:03:22;;;;;;;4.03;2.00;;;;;;;-3.00;63.05;96372.81;1840742;78;21058;-67
2022/01/18 04:05:52;;;;;;;3.40;1.67;;;;;;;-3.01;63.00;96374.92;1840458;78;21050;-67
2022/01/18 04:08:18;;;;;;;2.23;1.13;;;;;;;-3.00;63.26;96366.35;1840786;78;21051;-67
2022/01/18 04:10:44;;;;;;;3.50;1.10;;;;;;;-2.96;62.81;96369.15;1840375;78;21019;-67
2022/01/18 04:13:10;;;;;;;4.03;1.40;;;;;;;-2.93;62.67;96369.28;1840868;78;20983;-67
2022/01/18 04:15:37;;;;;;;3.10;1.20;;;;;;;-2.97;62.63;96367.78;1840385;78;21063;-67
2022/01/18 04:18:17;;;;;;;1.97;0.80;;;;;;;-2.96;62.65;96383.77;1840629;78;21019;-67
2022/01/18 04:28:57;;;;;;;36.50;20.40;;;;;;;-3.00;63.37;96389.59;1835100;78;21004;-66
2022/01/18 04:31:25;;;;;;;122.13;56.93;;;;;;;-2.97;63.25;96378.10;1834919;78;21003;-65
2022/01/18 04:33:52;;;;;;;53.93;32.67;;;;;;;-2.97;63.39;96384.55;1835420;78;21058;-65
2022/01/18 04:36:20;;;;;;;4.63;2.03;;;;;;;-2.99;63.47;96381.92;1835364;78;21102;-65
2022/01/18 04:38:47;;;;;;;11.90;6.77;;;;;;;-2.98;63.30;96388.84;1835038;78;21030;-65
2022/01/18 04:41:18;;;;;;;9.10;6.30;;;;;;;-3.02;63.65;96393.41;1835450;78;21000;-65
2022/01/18 04:49:15;;;;;;;4.87;1.83;;;;;;;-3.01;63.32;96403.33;1835207;78;21023;-65
2022/01/18 04:51:44;;;;;;;5.00;1.40;;;;;;;-3.00;63.79;96394.34;1835032;78;21008;-65
2022/01/18 04:54:12;;;;;;;6.87;2.20;;;;;;;-2.97;63.55;96389.34;1835230;78;20976;-65
2022/01/18 04:59:09;;;;;;;6.33;1.97;;;;;;;-2.95;63.22;96410.05;1834765;78;21063;-65
2022/01/18 05:01:39;;;;;;;5.00;2.97;;;;;;;-2.93;63.27;96402.84;1835075;78;20984;-65
2022/01/18 05:04:06;;;;;;;7.90;3.17;;;;;;;-2.95;62.84;96421.29;1835118;78;21019;-65
2022/01/18 05:06:33;;;;;;;5.50;1.50;;;;;;;-3.01;63.25;96426.56;1834951;78;21536;-65
2022/01/18 05:09:07;;;;;;;3.20;1.40;;;;;;;-3.00;62.85;96436.94;1835087;78;21070;-65
2022/01/18 05:11:32;;;;;;;4.97;1.70;;;;;;;-3.02;63.03;96420.52;1834091;78;21024;-65
2022/01/18 05:19:38;;;;;;;4.73;1.10;;;;;;;-3.11;63.63;96430.41;1835091;78;21015;-65
2022/01/18 05:24:26;;;;;;;10.83;3.00;;;;;;;-2.99;63.52;96448.18;1835124;78;20972;-65
2022/01/18 05:26:54;;;;;;;6.90;2.10;;;;;;;-2.99;63.74;96458.50;1834891;78;21524;-65
2022/01/18 05:29:22;;;;;;;3.63;1.63;;;;;;;-2.97;63.66;96463.30;1835071;78;20988;-66
2022/01/18 05:31:49;;;;;;;5.83;2.70;;;;;;;-2.98;62.90;96448.64;1835115;78;21019;-65
2022/01/18 05:34:16;;;;;;;13.93;6.70;;;;;;;-2.97;62.92;96456.47;1834967;78;21011;-66
2022/01/18 05:36:42;;;;;;;5.47;2.43;;;;;;;-2.99;63.11;96461.09;1835202;78;21003;-65
2022/01/18 05:39:10;;;;;;;18.97;13.57;;;;;;;-2.99;62.90;96464.96;1834854;78;21043;-65
2022/01/18 05:41:39;;;;;;;22.20;10.57;;;;;;;-3.01;63.28;96458.42;1834954;78;21500;-65
2022/01/18 05:44:07;;;;;;;24.30;13.97;;;;;;;-3.00;63.21;96464.05;1835120;78;21512;-65
2022/01/18 05:46:34;;;;;;;52.33;32.00;;;;;;;-3.00;63.59;96457.59;1834921;78;21003;-65
2022/01/18 05:49:01;;;;;;;9.33;5.00;;;;;;;-2.98;63.55;96453.39;1834806;78;21059;-65
2022/01/18 05:51:29;;;;;;;9.43;4.20;;;;;;;-3.01;63.34;96451.09;1835117;78;20984;-65
2022/01/18 05:53:55;;;;;;;13.83;7.93;;;;;;;-3.06;63.32;96457.32;1835148;78;21489;-65
2022/01/18 05:56:22;;;;;;;13.80;8.00;;;;;;;-3.12;63.19;96458.34;1835013;78;21043;-66
2022/01/18 05:58:49;;;;;;;6.00;3.80;;;;;;;-3.17;63.61;96463.27;1834668;78;21521;-67
2022/01/18 06:01:25;;;;;;;10.33;6.33;;;;;;;-3.24;63.65;96457.74;1834689;78;21059;-66
2022/01/18 06:09:08;;;;;;;10.67;7.07;;;;;;;-3.28;63.86;96462.77;1774191;81;21700;-66
2022/01/18 06:11:35;;;;;;;4.27;2.00;;;;;;;-3.23;64.04;96471.11;1775815;81;21017;-67
2022/01/18 06:14:01;;;;;;;2.17;1.13;;;;;;;-3.15;63.39;96479.72;1774873;81;21045;-65
2022/01/18 06:16:28;;;;;;;3.50;1.70;;;;;;;-3.14;63.49;96487.93;1775188;81;21585;-68
2022/01/18 06:18:55;;;;;;;4.20;1.77;;;;;;;-3.13;63.13;96487.11;1775073;81;21065;-65
2022/01/18 06:21:22;;;;;;;9.73;2.40;;;;;;;-3.05;62.94;96488.39;1768119;81;21076;-64
2022/01/18 06:23:49;;;;;;;5.70;2.37;;;;;;;-3.03;63.52;96487.14;1761160;81;21057;-67
2022/01/18 06:26:16;;;;;;;4.47;2.47;;;;;;;-3.03;63.66;96478.52;1761104;81;21038;-65
2022/01/18 06:28:44;;;;;;;5.40;3.10;;;;;;;-3.01;64.00;96484.65;1761522;81;21161;-65
2022/01/18 06:31:12;;;;;;;5.60;1.50;;;;;;;-2.95;63.89;96488.42;1761464;81;21038;-67
2022/01/18 06:33:39;;;;;;;5.47;2.13;;;;;;;-2.93;63.45;96482.89;1761529;81;21115;-67
2022/01/18 06:36:06;;;;;;;7.20;2.33;;;;;;;-2.89;63.60;96498.15;1762071;81;21029;-67
2022/01/18 06:38:33;;;;;;;4.77;1.77;;;;;;;-2.87;63.55;96497.41;1762192;81;21045;-66
2022/01/18 06:41:00;;;;;;;4.10;1.90;;;;;;;-2.85;64.09;96498.75;1761949;81;21649;-65
2022/01/18 06:43:27;;;;;;;22.17;12.97;;;;;;;-2.84;63.64;96501.83;1760759;81;21364;-65
2022/01/18 06:45:54;;;;;;;9.20;2.40;;;;;;;-2.76;63.96;96500.91;1761519;81;21974;-65
2022/01/18 06:48:20;;;;;;;9.57;3.80;;;;;;;-2.76;63.91;96513.81;1762855;81;20994;-67
2022/01/18 06:50:47;;;;;;;6.57;3.30;;;;;;;-2.74;64.11;96513.08;1761902;81;21041;-66
2022/01/18 06:53:13;;;;;;;10.70;4.60;;;;;;;-2.73;64.19;96508.38;1762302;81;21049;-67
2022/01/18 06:55:40;;;;;;;4.67;2.00;;;;;;;-2.75;64.25;96512.98;1762620;81;21086;-65
2022/01/18 06:58:06;;;;;;;4.70;2.17;;;;;;;-2.72;64.13;96511.45;1761969;81;21047;-65
2022/01/18 07:00:33;;;;;;;7.07;2.90;;;;;;;-2.70;64.10;96516.26;1762203;81;21553;-68
2022/01/18 07:02:59;;;;;;;5.13;2.90;;;;;;;-2.67;64.22;96516.42;1762364;81;21019;-66
2022/01/18 07:05:26;;;;;;;4.20;2.33;;;;;;;-2.62;64.49;96525.69;1761144;81;22121;-65
2022/01/18 07:07:52;;;;;;;22.73;11.73;;;;;;;-2.56;64.69;96525.08;1761434;81;21096;-67
2022/01/18 07:10:18;;;;;;;6.67;3.40;;;;;;;-2.57;64.40;96527.17;1761161;81;21093;-66
2022/01/18 07:12:45;;;;;;;7.30;3.47;;;;;;;-2.62;63.43;96529.56;1761527;81;21129;-66
2022/01/18 07:15:13;;;;;;;4.60;1.70;;;;;;;-2.57;63.79;96530.66;1762141;81;21042;-67
2022/01/18 07:17:40;;;;;;;12.50;7.13;;;;;;;-2.51;63.43;96531.34;1761276;81;21085;-67
2022/01/18 07:20:09;;;;;;;7.43;3.37;;;;;;;-2.48;64.34;96529.78;1761372;81;21077;-66
2022/01/18 07:22:36;;;;;;;10.37;5.33;;;;;;;-2.41;64.29;96534.42;1756934;81;20992;-68
2022/01/18 07:25:10;;;;;;;11.67;5.67;;;;;;;-2.37;63.75;96543.60;1756925;81;21079;-66
2022/01/18 07:27:32;;;;;;;3.90;1.60;;;;;;;-2.42;64.12;96546.88;1757392;81;21054;-66
2022/01/18 07:29:59;;;;;;;4.80;1.90;;;;;;;-2.41;63.96;96546.05;1756614;81;21484;-65
2022/01/18 07:32:25;;;;;;;6.33;2.73;;;;;;;-2.44;64.50;96548.91;1745707;80;21002;-65
2022/01/18 07:34:53;;;;;;;14.43;9.67;;;;;;;-2.51;64.62;96551.61;1728896;83;21150;-67
2022/01/18 07:37:22;;;;;;;4.33;2.13;;;;;;;-2.50;65.46;96552.48;1765069;81;22422;-66
2022/01/18 07:39:52;;;;;;;3.10;2.43;;;;;;;-2.46;65.50;96542.78;1740221;82;21089;-66
2022/01/18 07:42:20;;;;;;;3.60;1.43;;;;;;;-2.42;65.45;96549.84;1740542;82;20958;-66
2022/01/18 07:44:47;;;;;;;6.83;2.43;;;;;;;-2.44;65.16;96561.42;1739440;82;21045;-68
2022/01/18 07:47:14;;;;;;;7.00;3.50;;;;;;;-2.47;65.65;96567.75;1740612;82;21034;-66
2022/01/18 07:49:40;;;;;;;4.47;1.20;;;;;;;-2.47;66.62;96566.45;1740685;82;21033;-68
2022/01/18 07:52:07;;;;;;;5.33;1.97;;;;;;;-2.43;66.39;96562.30;1739508;82;21057;-66
2022/01/18 07:54:33;;;;;;;3.30;2.00;;;;;;;-2.45;66.48;96570.38;1739308;82;21346;-66
2022/01/18 07:57:00;;;;;;;3.00;1.90;;;;;;;-2.41;66.92;96578.77;1740353;82;21597;-67
2022/01/18 07:59:27;;;;;;;7.50;4.20;;;;;;;-2.39;66.45;96575.86;1739307;82;21030;-67
2022/01/18 08:01:56;;;;;;;5.47;2.80;;;;;;;-2.33;67.21;96572.66;1738991;82;21613;-66
2022/01/18 08:04:23;;;;;;;3.50;1.37;;;;;;;-2.29;67.13;96570.30;1739923;82;20998;-66
2022/01/18 08:06:50;;;;;;;11.13;5.57;;;;;;;-2.24;66.25;96579.16;1739842;82;20990;-66
2022/01/18 08:09:19;;;;;;;6.87;3.97;;;;;;;-2.24;66.33;96586.91;1740361;82;21575;-65
2022/01/18 08:11:46;;;;;;;6.57;3.60;;;;;;;-2.19;66.43;96584.13;1752531;81;21528;-66
2022/01/18 08:14:17;;;;;;;21.47;12.03;;;;;;;-2.14;66.06;96599.86;1769277;81;21027;-67
2022/01/18 08:17:07;;;;;;;17.77;9.20;;;;;;;-2.08;66.23;96604.42;1769194;81;21063;-65
2022/01/18 08:19:34;;;;;;;7.27;4.17;;;;;;;-2.09;66.15;96616.84;1768109;81;21098;-65
2022/01/18 08:22:01;;;;;;;5.97;2.53;;;;;;;-2.16;65.74;96613.53;1771960;80;21993;-66
2022/01/18 08:24:28;;;;;;;7.33;3.03;;;;;;;-2.23;66.03;96609.77;1776745;81;21086;-66
2022/01/18 08:26:55;;;;;;;16.50;9.70;;;;;;;-2.24;66.42;96617.93;1775064;81;21062;-68
2022/01/18 08:29:23;;;;;;;4.57;3.50;;;;;;;-2.18;66.18;96611.73;1777682;80;21475;-67
2022/01/18 08:31:51;;;;;;;4.10;2.07;;;;;;;-2.11;65.96;96611.63;1766935;80;21108;-67
2022/01/18 08:34:18;;;;;;;8.03;2.50;;;;;;;-2.16;66.48;96616.99;1759758;80;21511;-67
2022/01/18 08:36:44;;;;;;;4.57;1.80;;;;;;;-2.12;66.79;96625.77;1740690;81;21065;-65
2022/01/18 08:39:12;;;;;;;7.37;1.67;;;;;;;-2.07;66.08;96632.03;1768879;81;21079;-67
2022/01/18 08:41:40;;;;;;;3.63;1.70;;;;;;;-2.05;65.78;96642.93;1752700;82;21543;-66
2022/01/18 08:44:06;;;;;;;4.03;1.80;;;;;;;-2.06;65.63;96644.17;1760087;80;21012;-65
2022/01/18 08:46:33;;;;;;;6.87;2.70;;;;;;;-2.12;65.75;96651.62;1765065;81;21097;-67
2022/01/18 08:49:00;;;;;;;3.37;1.53;;;;;;;-2.09;65.98;96654.34;1765366;81;21023;-66
2022/01/18 08:51:27;;;;;;;4.77;1.87;;;;;;;-2.10;66.09;96647.00;1765334;81;21023;-68
2022/01/18 08:53:56;;;;;;;8.67;3.50;;;;;;;-2.11;65.46;96659.88;1765024;81;21042;-68
2022/01/18 08:56:23;;;;;;;3.77;1.47;;;;;;;-2.14;65.47;96651.95;1764425;81;21602;-68
2022/01/18 08:58:50;;;;;;;5.57;1.50;;;;;;;-2.21;65.90;96650.80;1765217;81;21118;-67
2022/01/18 09:01:18;;;;;;;4.50;2.87;;;;;;;-2.24;65.57;96656.70;1765588;81;21058;-68
2022/01/18 09:03:45;;;;;;;7.57;2.03;;;;;;;-2.24;66.02;96656.70;1765538;81;21007;-65
2022/01/18 09:06:13;;;;;;;1.83;1.00;;;;;;;-2.27;66.34;96669.87;1764888;81;21516;-68
2022/01/18 09:08:41;;;;;;;1.60;0.97;;;;;;;-2.28;66.06;96676.75;1764523;81;21693;-66
2022/01/18 09:11:11;;;;;;;6.90;4.03;;;;;;;-2.28;66.07;96670.70;1765083;81;20991;-67
2022/01/18 09:13:39;;;;;;;6.00;2.87;;;;;;;-2.27;66.25;96669.49;1764607;81;21496;-68
2022/01/18 09:16:09;;;;;;;4.20;1.83;;;;;;;-2.15;66.26;96671.75;1765329;81;21077;-69
2022/01/18 09:18:37;;;;;;;9.33;4.40;;;;;;;-2.07;65.63;96681.16;1765945;81;21030;-66
2022/01/18 09:21:04;;;;;;;5.33;1.27;;;;;;;-1.91;65.82;96678.91;1765080;81;21018;-69
2022/01/18 09:23:31;;;;;;;3.20;2.00;;;;;;;-1.93;64.96;96676.25;1761236;81;21492;-67
2022/01/18 09:25:58;;;;;;;3.53;2.30;;;;;;;-1.76;64.41;96684.38;1760312;81;21085;-70
2022/01/18 09:28:24;;;;;;;2.80;1.23;;;;;;;-1.66;64.49;96677.94;1759986;81;21073;-68
2022/01/18 09:30:51;;;;;;;8.90;2.80;;;;;;;-1.61;63.09;96689.80;1759879;81;21088;-69
2022/01/18 09:33:17;;;;;;;4.60;1.83;;;;;;;-1.65;62.68;96682.28;1760640;81;21003;-67
2022/01/18 09:35:44;;;;;;;4.90;1.50;;;;;;;-1.60;62.35;96684.67;1758759;81;21003;-70
2022/01/18 09:38:10;;;;;;;10.70;2.47;;;;;;;-1.50;62.15;96687.27;1757556;81;21555;-67
2022/01/18 09:40:38;;;;;;;6.50;3.67;;;;;;;-1.37;62.01;96677.94;1758649;81;21002;-67
2022/01/18 09:43:12;;;;;;;5.37;2.43;;;;;;;-1.20;61.75;96674.80;1764056;81;21051;-68
2022/01/18 09:45:39;;;;;;;7.70;2.70;;;;;;;-1.06;60.47;96668.04;1764226;81;21493;-67
2022/01/18 09:48:06;;;;;;;4.03;1.70;;;;;;;-0.96;60.04;96673.70;1763851;81;21158;-65
2022/01/18 09:50:36;;;;;;;3.83;1.83;;;;;;;-0.94;59.50;96674.62;1764726;81;20999;-67
2022/01/18 09:53:06;;;;;;;5.60;2.70;;;;;;;-0.95;58.78;96672.88;1790758;80;21558;-66
2022/01/18 09:55:35;;;;;;;4.60;2.30;;;;;;;-0.89;59.30;96679.59;1777531;80;21540;-67
2022/01/18 09:58:06;;;;;;;7.10;2.77;;;;;;;-0.82;57.43;96682.05;1776978;81;21058;-70
2022/01/18 10:00:36;;;;;;;4.77;1.67;;;;;;;-0.84;56.27;96689.28;1777279;81;21010;-68
2022/01/18 10:03:04;;;;;;;3.67;1.37;;;;;;;-0.87;55.37;96684.86;1777315;81;21106;-68
2022/01/18 10:05:34;;;;;;;8.60;3.27;;;;;;;-0.81;55.43;96689.41;1777537;81;20999;-69
2022/01/18 10:08:10;;;;;;;4.90;1.50;;;;;;;-0.72;56.59;96685.51;1777133;81;21059;-68
2022/01/18 10:10:49;;;;;;;5.10;2.17;;;;;;;-0.74;53.46;96685.84;1777857;80;21012;-68
2022/01/18 10:13:23;;;;;;;2.63;1.40;;;;;;;-0.56;54.89;96678.37;1777734;80;21565;-68
2022/01/18 10:16:16;;;;;;;3.43;1.30;;;;;;;-0.64;52.98;96680.64;1776750;81;20964;-69
2022/01/18 10:19:00;;;;;;;3.62;1.85;;;;;;;-0.48;53.83;96676.97;1777957;81;21085;-68
2022/01/18 10:21:35;;;;;;;3.17;1.70;;;;;;;-0.45;53.43;96678.42;1778023;80;21572;-68
2022/01/18 10:24:22;;;;;;;2.97;1.47;;;;;;;-0.31;53.62;96686.33;1778193;81;21560;-68
2022/01/18 10:26:52;;;;;;;5.00;2.53;;;;;;;-0.42;52.14;96680.25;1777492;80;21042;-69
2022/01/18 10:29:29;;;;;;;3.17;1.23;;;;;;;-0.20;54.35;96681.60;1777205;80;21189;-69
2022/01/18 10:32:02;;;;;;;4.03;1.63;;;;;;;-0.01;52.77;96670.23;1776511;81;21000;-69
2022/01/18 10:37:14;;;;;;;4.73;1.70;;;;;;;0.31;52.30;96670.19;1774981;80;21011;-68
2022/01/18 10:39:50;;;;;;;5.07;1.87;;;;;;;0.53;51.90;96661.89;1776602;81;21097;-69
2022/01/18 10:42:35;;;;;;;3.53;1.70;;;;;;;0.59;52.41;96656.52;1778125;80;20991;-68
2022/01/18 10:45:16;;;;;;;2.70;1.33;;;;;;;0.62;50.62;96666.13;1778444;80;21512;-69
2022/01/18 10:47:56;;;;;;;2.40;1.60;;;;;;;0.60;50.76;96658.69;1777882;81;21126;-68
2022/01/18 10:50:21;;;;;;;3.77;1.30;;;;;;;0.76;51.09;96662.77;1778146;81;21035;-68
2022/01/18 10:52:49;;;;;;;4.47;1.60;;;;;;;0.84;50.87;96663.48;1777178;80;21650;-68
2022/01/18 10:55:24;;;;;;;4.63;1.77;;;;;;;0.62;49.21;96654.45;1777226;81;21161;-69
2022/01/18 10:57:53;;;;;;;2.30;1.30;;;;;;;0.59;50.14;96654.34;1777672;81;21034;-69
2022/01/18 11:00:25;;;;;;;8.87;2.70;;;;;;;0.32;49.23;96661.55;1777648;81;21334;-68
2022/01/18 11:02:54;;;;;;;6.90;3.83;;;;;;;0.52;50.47;96655.81;1777758;80;20987;-68
2022/01/18 11:05:26;;;;;;;6.83;5.13;;;;;;;0.53;50.87;96664.48;1777375;80;20988;-69
2022/01/18 11:07:55;;;;;;;5.60;2.40;;;;;;;0.70;50.91;96662.09;1776927;81;21058;-68
2022/01/18 11:10:26;;;;;;;6.20;2.20;;;;;;;0.71;51.08;96657.39;1778204;80;20992;-69
2022/01/18 11:15:31;;;;;;;3.13;1.60;;;;;;;0.71;51.54;96667.78;1778191;81;21063;-69
2022/01/18 11:18:06;;;;;;;7.40;3.10;;;;;;;0.61;50.25;96665.67;1778042;80;21007;-69
2022/01/18 11:20:31;;;;;;;4.50;2.10;;;;;;;0.60;51.35;96672.98;1778073;80;21062;-68
2022/01/18 11:22:58;;;;;;;2.93;1.73;;;;;;;0.55;51.48;96671.92;1780049;80;21066;-68
2022/01/18 11:25:26;;;;;;;5.40;2.00;;;;;;;0.34;51.29;96680.67;1781128;80;21007;-68
2022/01/18 11:27:56;;;;;;;3.13;1.77;;;;;;;0.33;51.71;96684.53;1781552;80;21007;-68
2022/01/18 11:30:31;;;;;;;3.20;1.90;;;;;;;0.13;51.31;96679.45;1781561;80;21066;-68
2022/01/18 11:33:00;;;;;;;4.47;1.97;;;;;;;0.02;51.47;96687.20;1781303;80;21478;-68
2022/01/18 11:35:50;;;;;;;4.70;1.20;;;;;;;0.11;51.47;96692.77;1781364;80;20999;-68
2022/01/18 11:38:39;;;;;;;5.07;2.20;;;;;;;0.17;51.95;96683.91;1781673;80;21016;-68
2022/01/18 11:41:06;;;;;;;3.73;1.53;;;;;;;0.12;50.43;96689.34;1781341;80;21007;-68
2022/01/18 11:43:40;;;;;;;3.17;1.60;;;;;;;0.02;51.24;96684.61;1781116;80;21007;-68
2022/01/18 11:46:27;;;;;;;4.10;1.53;;;;;;;0.02;51.12;96694.98;1780724;80;21018;-69
2022/01/18 11:49:27;;;;;;;4.67;2.07;;;;;;;-0.04;51.45;96680.49;1781158;80;21533;-68
2022/01/18 11:52:03;;;;;;;4.30;2.43;;;;;;;-0.03;52.81;96686.14;1781344;80;21046;-69
2022/01/18 11:54:39;;;;;;;5.20;2.30;;;;;;;-0.09;52.06;96688.51;1781106;80;21011;-69
2022/01/18 11:57:27;;;;;;;3.77;1.50;;;;;;;-0.03;52.50;96696.52;1781215;80;21054;-68
2022/01/18 12:00:00;;;;;;;3.97;2.50;;;;;;;-0.05;51.86;96695.18;1781012;80;21093;-68
2022/01/18 12:02:40;;;;;;;7.10;2.77;;;;;;;-0.04;52.23;96698.66;1781484;80;20980;-68
2022/01/18 12:05:14;;;;;;;3.73;1.60;;;;;;;-0.04;52.03;96703.42;1781416;80;21512;-68
2022/01/18 12:07:47;;;;;;;3.67;1.70;;;;;;;-0.09;53.06;96689.80;1781107;80;21030;-68
2022/01/18 12:10:33;;;;;;;4.42;1.35;;;;;;;-0.21;52.18;96692.78;1781566;80;21035;-68
2022/01/18 12:13:14;;;;;;;4.83;1.80;;;;;;;-0.38;51.76;96691.20;1781400;80;20983;-68
2022/01/18 12:15:50;;;;;;;5.10;2.00;;;;;;;-0.42;52.68;96696.69;1780974;80;21031;-68
2022/01/18 12:18:29;;;;;;;6.27;3.17;;;;;;;-0.31;52.41;96703.19;1781236;80;20960;-68
2022/01/18 12:20:59;;;;;;;5.37;2.60;;;;;;;-0.34;52.54;96703.06;1781114;80;21053;-68
2022/01/18 12:23:41;;;;;;;4.03;1.83;;;;;;;-0.33;53.03;96698.38;1781202;80;21018;-68
2022/01/18 12:34:36;;;;;;;4.43;1.43;;;;;;;0.05;52.77;96703.31;1781412;80;21046;-68
2022/01/18 12:37:13;;;;;;;2.53;1.20;;;;;;;0.09;50.97;96712.58;1779591;80;21083;-68
2022/01/18 12:45:20;;;;;;;6.23;2.27;;;;;;;0.05;50.97;96724.06;1781297;80;20980;-68
2022/01/18 12:48:06;;;;;;;6.37;2.23;;;;;;;-0.02;50.71;96732.91;1780918;80;21027;-68
2022/01/18 12:50:37;;;;;;;6.33;3.20;;;;;;;-0.10;51.19;96734.33;1781051;80;21813;-67
2022/01/18 12:53:11;;;;;;;7.97;2.83;;;;;;;-0.11;51.31;96736.84;1781309;80;21042;-67
2022/01/18 12:55:54;;;;;;;3.70;1.40;;;;;;;-0.11;51.50;96736.42;1781385;80;21030;-67
2022/01/18 12:58:28;;;;;;;5.33;1.70;;;;;;;-0.12;51.28;96729.48;1781395;80;21031;-68
2022/01/18 13:01:11;;;;;;;3.40;1.67;;;;;;;-0.12;50.65;96728.59;1781433;80;20987;-68
2022/01/18 13:03:42;;;;;;;5.17;1.67;;;;;;;-0.27;50.50;96724.96;1781043;80;21559;-69
2022/01/18 13:06:12;;;;;;;4.77;2.37;;;;;;;-0.34;51.05;96728.12;1779859;80;21026;-69
2022/01/18 13:08:57;;;;;;;6.60;2.90;;;;;;;-0.01;50.89;96733.38;1780442;80;21078;-69
2022/01/18 13:11:31;;;;;;;8.70;3.67;;;;;;;0.07;50.12;96723.30;1780251;80;21097;-69